createdAt,value
2023-02-05T00:02:10.853Z,4.80
2023-02-05T00:04:39.245Z,4.80
2023-02-05T00:07:07.082Z,4.80
2023-02-05T00:09:36.377Z,4.80
2023-02-05T00:12:04.693Z,4.80
2023-02-05T00:14:32.470Z,4.80
2023-02-05T00:17:00.279Z,4.80
2023-02-05T00:19:29.426Z,4.80
2023-02-05T00:21:57.197Z,4.80
2023-02-05T00:24:24.994Z,4.80
2023-02-05T00:26:52.799Z,4.80
2023-02-05T00:29:20.603Z,4.80
2023-02-05T00:31:49.605Z,4.80
2023-02-05T00:34:17.730Z,4.80
2023-02-05T00:36:46.884Z,4.80
2023-02-05T00:39:14.698Z,4.80
2023-02-05T00:41:42.558Z,4.80
2023-02-05T00:44:10.321Z,4.80
2023-02-05T00:46:38.109Z,4.80
2023-02-05T00:49:05.893Z,4.80
2023-02-05T00:51:33.670Z,4.80
2023-02-05T00:54:02.990Z,4.80
2023-02-05T00:56:30.808Z,4.80
2023-02-05T00:58:59.976Z,4.80
2023-02-05T01:01:27.822Z,4.80
2023-02-05T01:03:55.600Z,4.80
2023-02-05T01:06:23.376Z,4.80
2023-02-05T01:08:51.193Z,4.80
2023-02-05T01:11:20.940Z,4.80
2023-02-05T01:13:48.744Z,4.80
2023-02-05T01:16:16.611Z,4.80
2023-02-05T01:18:44.479Z,4.70
2023-02-05T01:21:12.449Z,4.70
2023-02-05T01:23:40.288Z,4.70
2023-02-05T01:26:08.457Z,4.70
2023-02-05T01:28:37.595Z,4.70
2023-02-05T01:31:05.607Z,4.70
2023-02-05T01:33:33.482Z,4.70
2023-02-05T01:36:01.301Z,4.70
2023-02-05T01:38:29.088Z,4.70
2023-02-05T01:40:59.778Z,4.70
2023-02-05T01:43:27.570Z,4.70
2023-02-05T01:46:26.830Z,4.70
2023-02-05T01:48:58.804Z,4.80
2023-02-05T01:51:29.715Z,4.80
2023-02-05T01:53:57.788Z,4.80
2023-02-05T01:56:30.206Z,4.80
2023-02-05T01:59:01.568Z,4.70
2023-02-05T02:01:32.050Z,4.80
2023-02-05T02:04:04.516Z,4.80
2023-02-05T02:06:33.783Z,4.80
2023-02-05T02:09:02.567Z,4.80
2023-02-05T02:11:34.195Z,4.80
2023-02-05T02:14:07.075Z,4.80
2023-02-05T02:16:37.432Z,4.80
2023-02-05T02:19:12.817Z,4.80
2023-02-05T02:22:05.725Z,4.80
2023-02-05T02:24:55.609Z,4.80
2023-02-05T02:27:38.597Z,4.80
2023-02-05T02:30:14.002Z,4.80
2023-02-05T02:32:46.664Z,4.80
2023-02-05T02:35:20.345Z,4.80
2023-02-05T02:41:44.194Z,4.70
2023-02-05T02:44:20.104Z,4.70
2023-02-05T02:46:52.721Z,4.70
2023-02-05T02:49:26.558Z,4.70
2023-02-05T02:51:56.337Z,4.70
2023-02-05T02:54:27.417Z,4.70
2023-02-05T02:56:57.657Z,4.70
2023-02-05T02:59:30.593Z,4.70
2023-02-05T03:02:01.096Z,4.70
2023-02-05T03:04:34.314Z,4.70
2023-02-05T03:07:13.336Z,4.80
2023-02-05T03:09:51.785Z,4.80
2023-02-05T03:12:19.787Z,4.80
2023-02-05T03:14:49.286Z,4.70
2023-02-05T03:17:19.642Z,4.80
2023-02-05T03:19:48.127Z,4.80
2023-02-05T03:22:16.170Z,4.80
2023-02-05T03:24:44.805Z,4.80
2023-02-05T03:27:12.583Z,4.80
2023-02-05T03:29:44.688Z,4.80
2023-02-05T03:32:26.686Z,4.80
2023-02-05T03:35:07.555Z,4.80
2023-02-05T03:37:45.161Z,4.80
2023-02-05T03:40:21.484Z,4.80
2023-02-05T03:42:56.956Z,4.80
2023-02-05T03:45:36.155Z,4.80
2023-02-05T03:48:15.459Z,4.80
2023-02-05T03:50:50.418Z,4.80
2023-02-05T03:53:24.726Z,4.80
2023-02-05T03:55:58.256Z,4.80
2023-02-05T03:58:30.094Z,4.80
2023-02-05T04:00:58.530Z,4.80
2023-02-05T04:03:27.810Z,4.80
2023-02-05T04:05:56.178Z,4.80
2023-02-05T04:08:23.977Z,4.80
2023-02-05T04:10:51.758Z,4.80
2023-02-05T04:13:19.555Z,4.90
2023-02-05T04:15:49.288Z,4.90
2023-02-05T04:18:17.550Z,4.90
2023-02-05T04:20:46.741Z,4.90
2023-02-05T04:23:14.636Z,4.90
2023-02-05T04:25:42.558Z,4.90
2023-02-05T04:28:11.782Z,4.90
2023-02-05T04:30:40.934Z,4.90
2023-02-05T04:33:08.754Z,4.90
2023-02-05T04:35:36.787Z,4.90
2023-02-05T04:38:06.056Z,4.90
2023-02-05T04:40:33.894Z,4.90
2023-02-05T04:43:01.675Z,4.90
2023-02-05T04:45:31.103Z,4.90
2023-02-05T04:47:59.456Z,4.90
2023-02-05T04:50:28.026Z,4.90
2023-02-05T04:52:55.890Z,4.90
2023-02-05T04:55:25.039Z,4.90
2023-02-05T04:57:52.909Z,4.80
2023-02-05T05:00:21.130Z,4.80
2023-02-05T05:02:48.966Z,4.80
2023-02-05T05:05:16.937Z,4.80
2023-02-05T05:07:44.737Z,4.80
2023-02-05T05:10:13.213Z,4.80
2023-02-05T05:12:42.368Z,4.80
2023-02-05T05:15:10.647Z,4.80
2023-02-05T05:17:38.441Z,4.80
2023-02-05T05:20:07.088Z,4.80
2023-02-05T05:22:35.027Z,4.90
2023-02-05T05:25:02.994Z,4.90
2023-02-05T05:27:30.828Z,4.90
2023-02-05T05:29:59.980Z,4.90
2023-02-05T05:32:27.948Z,4.90
2023-02-05T05:34:57.111Z,4.90
2023-02-05T05:37:24.945Z,4.90
2023-02-05T05:40:10.460Z,4.90
2023-02-05T05:42:56.589Z,4.90
2023-02-05T05:45:25.917Z,4.90
2023-02-05T05:47:53.750Z,4.90
2023-02-05T05:50:21.573Z,4.90
2023-02-05T05:52:49.333Z,4.90
2023-02-05T05:55:17.311Z,4.90
2023-02-05T05:57:45.079Z,4.90
2023-02-05T06:00:14.342Z,4.90
2023-02-05T06:02:44.667Z,4.90
2023-02-05T06:05:12.550Z,4.90
2023-02-05T06:07:40.377Z,4.90
2023-02-05T06:10:08.992Z,4.90
2023-02-05T06:12:36.905Z,4.90
2023-02-05T06:15:05.532Z,4.90
2023-02-05T06:17:33.346Z,4.90
2023-02-05T06:20:02.671Z,4.90
2023-02-05T06:22:30.502Z,4.90
2023-02-05T06:24:58.340Z,5.00
2023-02-05T06:27:26.227Z,5.00
2023-02-05T06:29:54.041Z,5.00
2023-02-05T06:32:22.114Z,5.00
2023-02-05T06:34:49.918Z,5.00
2023-02-05T06:37:19.078Z,5.00
2023-02-05T06:39:46.903Z,5.00
2023-02-05T06:42:14.686Z,5.00
2023-02-05T06:44:42.494Z,5.10
2023-02-05T06:47:12.093Z,5.10
2023-02-05T06:49:39.879Z,5.10
2023-02-05T06:52:07.685Z,5.10
2023-02-05T06:54:38.592Z,5.10
2023-02-05T06:57:06.382Z,5.10
2023-02-05T06:59:34.241Z,5.10
2023-02-05T07:02:02.109Z,5.10
2023-02-05T07:04:30.951Z,5.10
2023-02-05T07:06:59.222Z,5.10
2023-02-05T07:09:27.279Z,5.10
2023-02-05T07:11:56.374Z,5.10
2023-02-05T07:14:24.211Z,5.10
2023-02-05T07:16:52.049Z,5.10
2023-02-05T07:19:19.845Z,5.10
2023-02-05T07:21:47.671Z,5.20
2023-02-05T07:24:15.914Z,5.20
2023-02-05T07:26:45.266Z,5.20
2023-02-05T07:29:14.716Z,5.20
2023-02-05T07:31:42.694Z,5.30
2023-02-05T07:34:10.568Z,5.30
2023-02-05T07:36:38.365Z,5.30
2023-02-05T07:39:06.164Z,5.30
2023-02-05T07:41:34.062Z,5.30
2023-02-05T07:44:01.837Z,5.30
2023-02-05T07:46:31.604Z,5.40
2023-02-05T07:48:59.419Z,5.40
2023-02-05T07:51:27.585Z,5.40
2023-02-05T07:53:55.481Z,5.40
2023-02-05T07:56:25.660Z,5.40
2023-02-05T07:58:53.693Z,5.50
2023-02-05T08:01:21.510Z,5.50
2023-02-05T08:03:50.852Z,5.50
2023-02-05T08:06:18.740Z,5.50
2023-02-05T08:08:46.536Z,5.50
2023-02-05T08:11:16.353Z,5.50
2023-02-05T08:13:44.889Z,5.50
2023-02-05T08:16:15.553Z,5.50
2023-02-05T08:18:43.545Z,5.60
2023-02-05T08:21:12.687Z,5.60
2023-02-05T08:23:40.504Z,5.60
2023-02-05T08:26:08.316Z,5.60
2023-02-05T08:28:36.176Z,5.60
2023-02-05T08:31:10.617Z,5.60
2023-02-05T08:33:38.401Z,5.60
2023-02-05T08:36:06.977Z,5.60
2023-02-05T08:38:36.178Z,5.60
2023-02-05T08:41:12.361Z,5.60
2023-02-05T08:43:42.587Z,5.60
2023-02-05T08:46:11.105Z,5.60
2023-02-05T08:48:39.226Z,5.60
2023-02-05T08:51:09.721Z,5.60
2023-02-05T08:53:40.149Z,5.60
2023-02-05T08:56:10.444Z,5.60
2023-02-05T08:58:38.649Z,5.60
2023-02-05T09:01:08.461Z,5.60
2023-02-05T09:03:36.458Z,5.60
2023-02-05T09:06:07.374Z,5.60
2023-02-05T09:08:35.482Z,5.60
2023-02-05T09:11:05.299Z,5.60
2023-02-05T09:13:33.383Z,5.60
2023-02-05T09:16:01.366Z,5.60
2023-02-05T09:18:29.191Z,5.60
2023-02-05T09:20:57.023Z,5.60
2023-02-05T09:23:24.875Z,5.60
2023-02-05T09:25:52.746Z,5.60
2023-02-05T09:28:21.919Z,5.60
2023-02-05T09:30:49.770Z,5.60
2023-02-05T09:33:17.549Z,5.60
2023-02-05T09:35:45.596Z,5.60
2023-02-05T09:38:15.315Z,5.60
2023-02-05T09:40:55.500Z,5.50
2023-02-05T09:43:51.234Z,5.50
2023-02-05T09:46:28.506Z,5.50
2023-02-05T09:49:02.941Z,5.40
2023-02-05T09:51:35.140Z,5.40
2023-02-05T09:54:11.500Z,5.30
2023-02-05T09:56:40.056Z,5.30
2023-02-05T09:59:23.081Z,5.30
2023-02-05T10:01:53.228Z,5.20
2023-02-05T10:04:21.620Z,5.20
2023-02-05T10:07:17.251Z,5.20
2023-02-05T10:10:24.444Z,5.20
2023-02-05T10:13:09.094Z,5.20
2023-02-05T10:15:52.916Z,5.20
2023-02-05T10:18:28.805Z,5.20
2023-02-05T10:21:02.510Z,5.20
2023-02-05T10:23:46.074Z,5.20
2023-02-05T10:26:15.118Z,5.20
2023-02-05T10:29:13.434Z,5.20
2023-02-05T10:31:44.766Z,5.20
2023-02-05T10:34:26.181Z,5.20
2023-02-05T10:36:54.816Z,5.20
2023-02-05T10:39:26.818Z,5.30
2023-02-05T10:42:00.008Z,5.30
2023-02-05T10:44:31.858Z,5.30
2023-02-05T10:47:07.367Z,5.30
2023-02-05T10:49:46.845Z,5.30
2023-02-05T10:52:16.493Z,5.30
2023-02-05T10:54:45.347Z,5.30
2023-02-05T10:57:14.798Z,5.30
2023-02-05T10:59:52.771Z,5.30
2023-02-05T11:02:23.090Z,5.30
2023-02-05T11:04:55.406Z,5.30
2023-02-05T11:07:27.162Z,5.30
2023-02-05T11:09:55.038Z,5.30
2023-02-05T11:12:30.081Z,5.30
2023-02-05T11:15:00.216Z,5.40
2023-02-05T11:17:33.203Z,5.40
2023-02-05T11:20:04.008Z,5.40
2023-02-05T11:22:35.021Z,5.40
2023-02-05T11:25:11.792Z,5.40
2023-02-05T11:27:40.228Z,5.40
2023-02-05T11:30:49.664Z,5.40
2023-02-05T11:33:25.441Z,5.40
2023-02-05T11:35:56.508Z,5.50
2023-02-05T11:38:31.577Z,5.50
2023-02-05T11:41:01.843Z,5.50
2023-02-05T11:43:32.415Z,5.60
2023-02-05T11:46:02.692Z,5.60
2023-02-05T11:48:39.756Z,5.60
2023-02-05T11:51:10.214Z,5.60
2023-02-05T11:53:39.572Z,5.60
2023-02-05T11:56:12.470Z,5.60
2023-02-05T11:58:40.217Z,5.60
2023-02-05T12:01:23.846Z,5.70
2023-02-05T12:04:00.759Z,5.70
2023-02-05T12:06:34.293Z,5.70
2023-02-05T12:09:02.564Z,5.70
2023-02-05T12:12:06.438Z,5.60
2023-02-05T12:14:41.167Z,5.70
2023-02-05T12:17:39.709Z,5.60
2023-02-05T12:20:20.453Z,5.60
2023-02-05T12:23:05.955Z,5.60
2023-02-05T12:25:42.691Z,5.60
2023-02-05T12:28:27.412Z,5.50
2023-02-05T12:31:09.510Z,5.50
2023-02-05T12:34:05.889Z,5.50
2023-02-05T12:37:06.987Z,5.50
2023-02-05T12:39:45.325Z,5.50
2023-02-05T12:42:25.238Z,5.50
2023-02-05T12:45:07.503Z,5.50
2023-02-05T12:47:48.478Z,5.50
2023-02-05T12:50:42.896Z,5.50
2023-02-05T12:53:23.975Z,5.50
2023-02-05T12:56:07.039Z,5.50
2023-02-05T12:58:38.740Z,5.50
2023-02-05T13:01:15.242Z,5.50
2023-02-05T13:03:49.251Z,5.50
2023-02-05T13:06:21.143Z,5.50
2023-02-05T13:08:54.058Z,5.50
2023-02-05T13:11:25.795Z,5.50
2023-02-05T13:13:57.323Z,5.50
2023-02-05T13:16:34.706Z,5.50
2023-02-05T13:19:13.988Z,5.50
2023-02-05T13:22:00.116Z,5.50
2023-02-05T13:24:49.743Z,5.50
2023-02-05T13:27:42.014Z,5.40
2023-02-05T13:30:15.398Z,5.40
2023-02-05T13:32:47.767Z,5.40
2023-02-05T13:35:16.098Z,5.40
2023-02-05T13:38:01.300Z,5.40
2023-02-05T13:40:44.784Z,5.50
2023-02-05T13:43:44.935Z,5.40
2023-02-05T13:46:36.373Z,5.40
2023-02-05T13:49:32.131Z,5.40
2023-02-05T13:52:16.547Z,5.40
2023-02-05T13:55:14.348Z,5.40
2023-02-05T13:58:10.135Z,5.40
2023-02-05T14:00:40.984Z,5.30
2023-02-05T14:03:09.892Z,5.30
2023-02-05T14:05:40.152Z,5.30
2023-02-05T14:08:20.267Z,5.30
2023-02-05T14:10:49.560Z,5.40
2023-02-05T14:13:25.303Z,5.40
2023-02-05T14:15:55.071Z,5.40
2023-02-05T14:18:51.076Z,5.30
2023-02-05T14:21:50.300Z,5.30
2023-02-05T14:24:39.506Z,5.30
2023-02-05T14:27:42.895Z,5.30
2023-02-05T14:30:38.231Z,5.30
2023-02-05T14:33:32.568Z,5.30
2023-02-05T14:36:33.295Z,5.30
2023-02-05T14:39:07.521Z,5.20
2023-02-05T14:41:52.290Z,5.20
2023-02-05T14:44:24.564Z,5.20
2023-02-05T14:47:03.308Z,5.20
2023-02-05T14:49:39.819Z,5.20
2023-02-05T14:52:20.387Z,5.10
2023-02-05T14:54:52.043Z,5.10
2023-02-05T14:57:25.419Z,5.00
2023-02-05T14:59:57.615Z,5.00
2023-02-05T15:03:02.492Z,5.00
2023-02-05T15:05:37.436Z,4.90
2023-02-05T15:08:12.217Z,4.90
2023-02-05T15:10:48.009Z,4.90
2023-02-05T15:13:17.503Z,4.90
2023-02-05T15:16:20.897Z,4.90
2023-02-05T15:18:51.374Z,4.90
2023-02-05T15:21:26.035Z,4.90
2023-02-05T15:24:00.183Z,4.90
2023-02-05T15:26:34.843Z,4.90
2023-02-05T15:29:06.880Z,4.90
2023-02-05T15:31:47.210Z,4.90
2023-02-05T15:34:34.821Z,4.90
2023-02-05T15:37:06.717Z,4.80
2023-02-05T15:39:44.427Z,4.80
2023-02-05T15:42:17.989Z,4.90
2023-02-05T15:44:45.900Z,4.80
2023-02-05T15:47:18.595Z,4.90
2023-02-05T15:49:49.403Z,4.80
2023-02-05T15:52:22.463Z,4.80
2023-02-05T15:54:51.556Z,4.80
2023-02-05T15:57:23.016Z,4.80
2023-02-05T15:59:52.316Z,4.80
2023-02-05T16:02:22.616Z,4.80
2023-02-05T16:04:55.458Z,4.80
2023-02-05T16:07:26.617Z,4.80
2023-02-05T16:09:57.084Z,4.80
2023-02-05T16:12:25.207Z,4.80
2023-02-05T16:15:00.584Z,4.70
2023-02-05T16:17:32.568Z,4.70
2023-02-05T16:20:26.608Z,4.70
2023-02-05T16:22:58.432Z,4.70
2023-02-05T16:25:45.820Z,4.70
2023-02-05T16:28:19.662Z,4.70
2023-02-05T16:30:49.263Z,4.70
2023-02-05T16:33:26.434Z,4.70
2023-02-05T16:35:54.901Z,4.70
2023-02-05T16:38:24.469Z,4.70
2023-02-05T16:40:55.460Z,4.70
2023-02-05T16:43:35.727Z,4.70
2023-02-05T16:46:23.987Z,4.70
2023-02-05T16:48:53.786Z,4.70
2023-02-05T16:51:52.364Z,4.70
2023-02-05T16:54:29.600Z,4.70
2023-02-05T16:57:02.063Z,4.70
2023-02-05T16:59:32.781Z,4.70
2023-02-05T17:02:01.027Z,4.70
2023-02-05T17:04:32.375Z,4.70
2023-02-05T17:07:02.273Z,4.70
2023-02-05T17:09:36.912Z,4.70
2023-02-05T17:12:38.393Z,4.70
2023-02-05T17:15:31.859Z,4.70
2023-02-05T17:18:06.188Z,4.70
2023-02-05T17:20:35.084Z,4.70
2023-02-05T17:23:11.842Z,4.70
2023-02-05T17:25:42.842Z,4.70
2023-02-05T17:28:16.487Z,4.70
2023-02-05T17:30:45.595Z,4.70
2023-02-05T17:33:17.735Z,4.70
2023-02-05T17:35:45.763Z,4.70
2023-02-05T17:38:13.507Z,4.70
2023-02-05T17:40:43.503Z,4.70
2023-02-05T17:43:11.509Z,4.70
2023-02-05T17:45:40.687Z,4.70
2023-02-05T17:48:09.970Z,4.70
2023-02-05T17:50:38.162Z,4.70
2023-02-05T17:53:05.895Z,4.80
2023-02-05T17:55:33.834Z,4.80
2023-02-05T17:58:03.649Z,4.80
2023-02-05T18:00:32.700Z,4.80
2023-02-05T18:03:00.578Z,4.80
2023-02-05T18:05:28.404Z,4.80
2023-02-05T18:07:58.618Z,4.80
2023-02-05T18:10:28.490Z,4.80
2023-02-05T18:12:56.969Z,4.80
2023-02-05T18:15:27.586Z,4.80
2023-02-05T18:17:55.326Z,4.80
2023-02-05T18:20:23.834Z,4.80
2023-02-05T18:22:51.571Z,4.80
2023-02-05T18:25:19.477Z,4.80
2023-02-05T18:27:47.961Z,4.80
2023-02-05T18:30:16.025Z,4.80
2023-02-05T18:32:45.127Z,4.80
2023-02-05T18:35:14.506Z,4.80
2023-02-05T18:37:42.902Z,4.80
2023-02-05T18:40:12.536Z,4.80
2023-02-05T18:42:41.133Z,4.80
2023-02-05T18:45:10.145Z,4.80
2023-02-05T18:47:37.897Z,4.80
2023-02-05T18:50:10.188Z,4.80
2023-02-05T18:52:38.161Z,4.80
2023-02-05T18:55:07.480Z,4.80
2023-02-05T18:57:35.192Z,4.80
2023-02-05T19:00:03.008Z,4.80
2023-02-05T19:02:33.123Z,4.80
2023-02-05T19:05:02.666Z,4.80
2023-02-05T19:07:31.742Z,4.70
2023-02-05T19:09:59.532Z,4.70
2023-02-05T19:12:27.261Z,4.70
2023-02-05T19:14:54.992Z,4.70
2023-02-05T19:17:25.706Z,4.70
2023-02-05T19:19:53.660Z,4.70
2023-02-05T19:22:21.387Z,4.70
2023-02-05T19:24:50.436Z,4.70
2023-02-05T19:27:18.173Z,4.70
2023-02-05T19:29:45.982Z,4.70
2023-02-05T19:32:13.714Z,4.70
2023-02-05T19:34:43.122Z,4.70
2023-02-05T19:37:12.339Z,4.70
2023-02-05T19:39:40.241Z,4.70
2023-02-05T19:42:09.414Z,4.70
2023-02-05T19:44:37.259Z,4.70
2023-02-05T19:47:05.161Z,4.70
2023-02-05T19:49:32.875Z,4.70
2023-02-05T19:52:01.334Z,4.60
2023-02-05T19:54:30.340Z,4.60
2023-02-05T19:56:58.097Z,4.60
2023-02-05T19:59:27.448Z,4.60
2023-02-05T20:01:55.485Z,4.60
2023-02-05T20:04:25.562Z,4.60
2023-02-05T20:06:56.274Z,4.60
2023-02-05T20:09:24.071Z,4.60
2023-02-05T20:11:54.288Z,4.60
2023-02-05T20:14:22.631Z,4.60
2023-02-05T20:16:52.511Z,4.50
2023-02-05T20:19:21.051Z,4.60
2023-02-05T20:21:49.724Z,4.50
2023-02-05T20:24:17.799Z,4.50
2023-02-05T20:26:47.745Z,4.60
2023-02-05T20:29:33.158Z,4.50
2023-02-05T20:32:02.334Z,4.50
2023-02-05T20:34:33.306Z,4.50
2023-02-05T20:37:05.163Z,4.50
2023-02-05T20:39:35.097Z,4.50
2023-02-05T20:42:03.526Z,4.50
2023-02-05T20:44:33.651Z,4.50
2023-02-05T20:47:02.840Z,4.50
2023-02-05T20:49:30.706Z,4.40
2023-02-05T20:51:58.467Z,4.40
2023-02-05T20:54:26.203Z,4.40
2023-02-05T20:56:56.842Z,4.40
2023-02-05T20:59:24.656Z,4.40
2023-02-05T21:01:52.437Z,4.40
2023-02-05T21:04:22.267Z,4.40
2023-02-05T21:06:50.296Z,4.40
2023-02-05T21:09:18.044Z,4.40
2023-02-05T21:11:45.786Z,4.30
2023-02-05T21:14:14.064Z,4.30
2023-02-05T21:16:41.793Z,4.30
2023-02-05T21:19:09.937Z,4.20
2023-02-05T21:21:39.277Z,4.20
2023-02-05T21:24:09.450Z,4.20
2023-02-05T21:26:38.963Z,4.20
2023-02-05T21:29:09.950Z,4.20
2023-02-05T21:31:39.770Z,4.20
2023-02-05T21:34:10.046Z,4.20
2023-02-05T21:36:39.260Z,4.20
2023-02-05T21:39:07.072Z,4.20
2023-02-05T21:41:34.919Z,4.20
2023-02-05T21:44:02.739Z,4.20
2023-02-05T21:46:31.099Z,4.10
2023-02-05T21:49:01.061Z,4.10
2023-02-05T21:51:31.923Z,4.10
2023-02-05T21:54:03.597Z,4.00
2023-02-05T21:56:33.279Z,4.00
2023-02-05T21:59:01.000Z,4.00
2023-02-05T22:01:30.238Z,4.00
2023-02-05T22:04:00.288Z,4.00
2023-02-05T22:06:29.942Z,4.00
2023-02-05T22:08:59.401Z,4.00
2023-02-05T22:11:29.326Z,4.00
2023-02-05T22:13:57.840Z,4.00
2023-02-05T22:16:27.455Z,4.00
2023-02-05T22:18:56.382Z,4.00
2023-02-05T22:21:25.906Z,4.00
2023-02-05T22:23:55.914Z,4.00
2023-02-05T22:26:26.161Z,4.00
2023-02-05T22:28:56.959Z,4.00
2023-02-05T22:31:24.693Z,4.00
2023-02-05T22:33:52.549Z,4.00
2023-02-05T22:36:21.771Z,4.00
2023-02-05T22:38:50.850Z,4.00
2023-02-05T22:41:20.419Z,4.00
2023-02-05T22:43:48.170Z,4.00
2023-02-05T22:46:19.768Z,4.00
2023-02-05T22:48:50.754Z,3.90
2023-02-05T22:51:20.709Z,3.90
2023-02-05T22:53:49.097Z,3.90
2023-02-05T22:56:18.240Z,3.90
2023-02-05T22:58:47.673Z,3.80
2023-02-05T23:01:18.891Z,3.80
2023-02-05T23:03:49.039Z,3.80
2023-02-05T23:06:18.830Z,3.70
2023-02-05T23:08:51.599Z,3.70
2023-02-05T23:11:19.721Z,3.70
2023-02-05T23:13:47.615Z,3.70
2023-02-05T23:16:17.965Z,3.70
2023-02-05T23:18:47.689Z,3.60
2023-02-05T23:21:17.789Z,3.60
2023-02-05T23:23:45.886Z,3.50
2023-02-05T23:26:16.071Z,3.50
2023-02-05T23:28:44.331Z,3.50
2023-02-05T23:31:12.473Z,3.40
2023-02-05T23:33:40.438Z,3.40
2023-02-05T23:36:10.888Z,3.40
2023-02-05T23:38:39.341Z,3.40
2023-02-05T23:41:07.832Z,3.30
2023-02-05T23:43:37.714Z,3.30
2023-02-05T23:46:06.853Z,3.30
2023-02-05T23:48:36.085Z,3.20
2023-02-05T23:51:03.952Z,3.20
2023-02-05T23:53:33.000Z,3.10
2023-02-05T23:56:01.632Z,3.10
2023-02-05T23:58:29.423Z,3.10
